YMTX weather

Mount Dare Airport
South Australia, Australia

Public forecast

Using degrees Celsius for public forecast. Weather courtesy of forecast.io.

Closest aviation weather report (METAR) to Mount Dare Airport

Closest report is Birdsville Airport, 221.6 nm (410.3 km) E. Retrieved 2020/06/05 13:00 UTC (33 minutes ago):

YBDV 051300Z AUTO 18006KT //// // ////// 12/01 Q1023

Closest aviation forecast (TAF) to Mount Dare Airport

Closest forecast is Alice Springs Airport, 153.9 nm (285.1 km) NNW. Retrieved 2020/06/05 12:00 UTC (2 hours ago):

TAF YBAS 051113Z 0512/0612 14007KT CAVOK FM051500 VRB03KT CAVOK FM060000 13010KT CAVOK